Ocho Rios, Jamaica
Current Conditions -  °F | °C
As of 5:00 PM on Monday 20 Oct 2014 (Local Time) from MKJP Reporting Station
Few Clouds Few Clouds  
Wind Chill: 86°   Ceiling: Unl
Heat Index: 97°   Visibility: 6mi
Dew Point: 77°   Wind: 22mph
Humidity: 74%   Direction: 140°SE
Pressure: 29.83"   Gusts: NA
Location:  18.42°N, 77.11°W
Report Text: MKJP 202200Z 14019KT 9999 FEW020 FEW022CB 30/25 Q1010
Loading
Personal Weather Stations






























Interactive Weather Map
Tropical Storm Tracking
New forecast layout! Learn more

10-Day Weather Forecast

Advertisements
Track Severe Weather on mobile